Myrtle Point, Oregon
Current Conditions -  °F | °C
As of 9:55 AM on Sunday 21 Dec 2014 (Local Time) from KOTH Reporting Station
Overcast Overcast  
Wind Chill: 57°   Ceiling: 3200
Heat Index: 57°   Visibility: 7mi
Dew Point: 55°   Wind: 7mph
Humidity: 94%   Direction: 210°SSW
Pressure: 30.18"   Gusts: NA
Location:  43.06°N, 124.14°W
Report Text: KOTH 211755Z 21006KT 7SM FEW018 BKN032 OVC047 14/13 A3018 RMK AO1 P0001 60025 10140 20140 52030
Loading
Personal Weather Stations






























Interactive Weather Map New forecast layout! Learn more

10-Day Weather Forecast

Advertisements
Track Severe Weather on mobile